createdAt,value
2024-02-21T00:01:20.536Z,2.77
2024-02-21T00:03:47.085Z,2.93
2024-02-21T00:06:13.588Z,2.90
2024-02-21T00:08:40.148Z,2.97
2024-02-21T00:11:06.886Z,2.90
2024-02-21T00:13:33.762Z,2.90
2024-02-21T00:16:01.829Z,3.07
2024-02-21T00:18:30.354Z,3.07
2024-02-21T00:20:57.454Z,3.27
2024-02-21T00:23:24.070Z,2.97
2024-02-21T00:25:51.345Z,3.00
2024-02-21T00:28:18.061Z,3.00
2024-02-21T00:30:45.015Z,2.80
2024-02-21T00:33:11.759Z,2.90
2024-02-21T00:35:38.319Z,3.27
2024-02-21T00:38:04.696Z,2.73
2024-02-21T00:40:31.887Z,2.77
2024-02-21T00:42:58.355Z,2.77
2024-02-21T00:45:24.850Z,2.80
2024-02-21T00:47:51.454Z,2.80
2024-02-21T00:50:18.179Z,2.80
2024-02-21T00:52:45.595Z,2.43
2024-02-21T00:55:12.486Z,2.53
2024-02-21T00:57:39.146Z,3.10
2024-02-21T01:00:06.323Z,3.37
2024-02-21T01:02:33.061Z,2.50
2024-02-21T01:04:59.686Z,2.50
2024-02-21T01:07:26.312Z,2.90
2024-02-21T01:09:53.795Z,2.77
2024-02-21T01:12:20.506Z,2.60
2024-02-21T01:14:50.593Z,2.50
2024-02-21T01:17:17.346Z,2.73
2024-02-21T01:19:43.815Z,2.37
2024-02-21T01:22:10.379Z,2.50
2024-02-21T01:24:36.919Z,3.20
2024-02-21T01:27:04.038Z,2.70
2024-02-21T01:29:30.521Z,3.00
2024-02-21T01:31:57.166Z,2.93
2024-02-21T01:34:23.886Z,2.83
2024-02-21T01:36:50.570Z,2.60
2024-02-21T01:39:17.135Z,2.70
2024-02-21T01:41:43.641Z,2.40
2024-02-21T01:44:10.095Z,2.70
2024-02-21T01:46:36.622Z,2.70
2024-02-21T01:49:03.561Z,2.07
2024-02-21T01:51:30.127Z,3.13
2024-02-21T01:53:58.717Z,2.37
2024-02-21T01:56:27.304Z,2.67
2024-02-21T01:58:54.094Z,2.37
2024-02-21T02:01:22.356Z,2.80
2024-02-21T02:03:50.652Z,2.63
2024-02-21T02:06:17.828Z,2.83
2024-02-21T02:08:44.554Z,2.70
2024-02-21T02:11:11.775Z,2.93
2024-02-21T02:13:38.405Z,2.97
2024-02-21T02:16:05.433Z,2.90
2024-02-21T02:18:32.019Z,2.50
2024-02-21T02:20:58.741Z,3.00
2024-02-21T02:23:31.187Z,2.60
2024-02-21T02:25:57.979Z,2.80
2024-02-21T02:28:25.033Z,2.90
2024-02-21T02:30:51.779Z,3.00
2024-02-21T02:33:19.014Z,2.47
2024-02-21T02:35:46.525Z,2.70
2024-02-21T02:38:14.303Z,2.80
2024-02-21T02:40:41.937Z,2.73
2024-02-21T02:43:08.534Z,2.40
2024-02-21T02:45:35.055Z,2.37
2024-02-21T02:48:01.605Z,2.43
2024-02-21T02:50:28.985Z,2.23
2024-02-21T02:52:56.298Z,2.67
2024-02-21T02:55:23.474Z,2.30
2024-02-21T02:57:50.174Z,2.67
2024-02-21T03:00:16.857Z,2.70
2024-02-21T03:02:45.920Z,2.70
2024-02-21T03:05:17.481Z,2.40
2024-02-21T03:07:45.268Z,2.23
2024-02-21T03:10:12.551Z,2.57
2024-02-21T03:12:39.283Z,2.50
2024-02-21T03:15:06.905Z,2.40
2024-02-21T03:17:35.878Z,2.40
2024-02-21T03:20:13.193Z,2.03
2024-02-21T03:22:41.317Z,2.63
2024-02-21T03:25:09.194Z,2.33
2024-02-21T03:27:35.854Z,2.40
2024-02-21T03:30:02.696Z,2.43
2024-02-21T03:32:32.294Z,2.83
2024-02-21T03:34:58.825Z,2.40
2024-02-21T03:37:25.661Z,3.00
2024-02-21T03:39:52.228Z,3.20
2024-02-21T03:42:18.880Z,2.73
2024-02-21T03:44:45.536Z,2.97
2024-02-21T03:47:12.649Z,2.60
2024-02-21T03:49:39.795Z,2.97
2024-02-21T03:52:06.763Z,2.47
2024-02-21T03:54:33.283Z,2.87
2024-02-21T03:56:59.765Z,2.53
2024-02-21T03:59:26.271Z,2.73
2024-02-21T04:01:53.906Z,2.97
2024-02-21T04:04:21.647Z,2.90
2024-02-21T04:06:49.837Z,3.20
2024-02-21T04:09:16.819Z,3.00
2024-02-21T04:11:43.539Z,3.10
2024-02-21T04:14:10.274Z,2.83
2024-02-21T04:16:36.736Z,2.97
2024-02-21T04:19:03.592Z,2.83
2024-02-21T04:21:30.290Z,2.40
2024-02-21T04:23:56.804Z,2.13
2024-02-21T04:26:23.319Z,2.13
2024-02-21T04:28:49.874Z,2.47
2024-02-21T04:31:16.487Z,2.93
2024-02-21T04:33:42.986Z,2.23
2024-02-21T04:36:10.365Z,2.63
2024-02-21T04:38:37.034Z,2.70
2024-02-21T04:41:03.605Z,2.70
2024-02-21T04:43:30.285Z,2.23
2024-02-21T04:45:56.972Z,2.40
2024-02-21T04:48:23.416Z,2.83
2024-02-21T04:50:49.964Z,2.37
2024-02-21T04:53:17.100Z,2.40
2024-02-21T04:55:43.783Z,2.30
2024-02-21T04:58:10.288Z,2.30
2024-02-21T05:00:36.895Z,2.60
2024-02-21T05:03:03.789Z,2.33
2024-02-21T05:05:30.751Z,2.10
2024-02-21T05:07:57.498Z,2.67
2024-02-21T05:10:24.069Z,3.70
2024-02-21T05:12:50.863Z,2.73
2024-02-21T05:15:17.432Z,3.37
2024-02-21T05:17:44.592Z,2.20
2024-02-21T05:20:11.676Z,2.70
2024-02-21T05:22:38.275Z,1.90
2024-02-21T05:25:05.147Z,2.10
2024-02-21T05:27:31.686Z,1.80
2024-02-21T05:29:59.402Z,2.10
2024-02-21T05:32:27.371Z,1.70
2024-02-21T05:34:53.932Z,1.90
2024-02-21T05:37:20.483Z,2.20
2024-02-21T05:39:47.072Z,2.10
2024-02-21T05:42:13.599Z,2.07
2024-02-21T05:44:40.224Z,2.40
2024-02-21T05:47:10.979Z,1.77
2024-02-21T05:49:38.197Z,2.47
2024-02-21T05:52:06.988Z,2.07
2024-02-21T05:54:33.750Z,2.07
2024-02-21T05:57:00.500Z,2.07
2024-02-21T05:59:27.160Z,2.00
2024-02-21T06:01:58.974Z,1.97
2024-02-21T06:04:25.806Z,2.03
2024-02-21T06:06:52.389Z,2.27
2024-02-21T06:09:18.948Z,1.63
2024-02-21T06:11:47.466Z,1.90
2024-02-21T06:14:14.239Z,1.83
2024-02-21T06:16:40.858Z,1.60
2024-02-21T06:19:10.100Z,1.63
2024-02-21T06:21:37.900Z,1.80
2024-02-21T06:24:04.909Z,2.13
2024-02-21T06:26:31.362Z,1.80
2024-02-21T06:28:58.544Z,2.20
2024-02-21T06:31:25.416Z,2.27
2024-02-21T06:33:52.088Z,2.00
2024-02-21T06:36:20.025Z,2.17
2024-02-21T06:38:46.630Z,1.83
2024-02-21T06:41:17.891Z,2.00
2024-02-21T06:43:44.498Z,2.20
2024-02-21T06:46:11.144Z,1.73
2024-02-21T06:48:37.600Z,2.23
2024-02-21T06:51:04.875Z,2.30
2024-02-21T06:53:31.259Z,2.00
2024-02-21T06:55:57.952Z,1.97
2024-02-21T06:58:24.507Z,2.03
2024-02-21T07:00:51.087Z,1.60
2024-02-21T07:03:17.530Z,2.13
2024-02-21T07:05:44.432Z,2.80
2024-02-21T07:08:11.125Z,2.00
2024-02-21T07:10:37.859Z,1.93
2024-02-21T07:13:04.454Z,2.10
2024-02-21T07:15:32.161Z,2.10
2024-02-21T07:17:58.666Z,1.90
2024-02-21T07:20:25.234Z,1.90
2024-02-21T07:22:51.966Z,2.40
2024-02-21T07:25:18.662Z,2.10
2024-02-21T07:27:46.098Z,2.03
2024-02-21T07:30:16.184Z,2.20
2024-02-21T07:32:44.347Z,2.20
2024-02-21T07:35:14.157Z,2.13
2024-02-21T07:37:40.863Z,1.87
2024-02-21T07:40:08.263Z,1.97
2024-02-21T07:42:34.649Z,1.77
2024-02-21T07:45:01.421Z,1.73
2024-02-21T07:47:27.968Z,2.17
2024-02-21T07:49:54.628Z,2.30
2024-02-21T07:52:21.176Z,2.10
2024-02-21T07:54:47.917Z,2.30
2024-02-21T07:57:14.301Z,2.20
2024-02-21T07:59:40.812Z,2.23
2024-02-21T08:02:07.960Z,2.03
2024-02-21T08:04:34.779Z,2.37
2024-02-21T08:07:03.740Z,1.90
2024-02-21T08:09:30.304Z,1.90
2024-02-21T08:11:57.185Z,1.53
2024-02-21T08:14:25.772Z,1.87
2024-02-21T08:16:54.463Z,2.30
2024-02-21T08:19:22.122Z,1.53
2024-02-21T08:21:48.651Z,1.90
2024-02-21T08:24:16.135Z,2.00
2024-02-21T08:26:43.187Z,1.80
2024-02-21T08:29:09.740Z,2.00
2024-02-21T08:31:36.227Z,2.17
2024-02-21T08:34:05.728Z,2.33
2024-02-21T08:36:33.614Z,2.73
2024-02-21T08:39:00.988Z,2.77
2024-02-21T08:41:41.825Z,2.90
2024-02-21T08:44:14.589Z,2.03
2024-02-21T08:46:41.391Z,2.13
2024-02-21T08:49:08.390Z,2.20
2024-02-21T08:51:35.227Z,2.57
2024-02-21T08:54:02.236Z,2.43
2024-02-21T08:56:31.104Z,2.27
2024-02-21T08:58:59.009Z,2.30
2024-02-21T09:01:25.594Z,2.30
2024-02-21T09:03:55.010Z,2.30
2024-02-21T09:06:21.681Z,2.03
2024-02-21T09:08:48.146Z,2.33
2024-02-21T09:11:14.982Z,2.10
2024-02-21T09:13:41.728Z,2.10
2024-02-21T09:16:08.240Z,2.27
2024-02-21T09:18:34.801Z,2.37
2024-02-21T09:21:01.225Z,2.23
2024-02-21T09:23:28.117Z,1.90
2024-02-21T09:25:56.482Z,2.40
2024-02-21T09:28:23.943Z,2.50
2024-02-21T09:30:50.408Z,2.33
2024-02-21T09:33:27.033Z,1.87
2024-02-21T09:35:58.801Z,2.20
2024-02-21T09:38:25.205Z,2.30
2024-02-21T09:41:04.201Z,2.30
2024-02-21T09:43:31.115Z,2.47
2024-02-21T09:45:59.480Z,2.10
2024-02-21T09:48:52.090Z,2.70
2024-02-21T09:51:20.415Z,2.00
2024-02-21T09:53:55.251Z,2.10
2024-02-21T09:56:29.244Z,2.03
2024-02-21T09:58:57.044Z,2.10
2024-02-21T10:01:33.887Z,2.10
2024-02-21T10:04:04.021Z,2.30
2024-02-21T10:06:30.653Z,2.13
2024-02-21T10:08:57.180Z,1.83
2024-02-21T10:11:27.382Z,1.80
2024-02-21T10:14:10.029Z,1.60
2024-02-21T10:16:38.401Z,1.67
2024-02-21T10:19:05.347Z,1.80
2024-02-21T10:21:32.063Z,1.67
2024-02-21T10:23:58.593Z,1.70
2024-02-21T10:26:25.061Z,2.00
2024-02-21T10:28:53.631Z,2.03
2024-02-21T10:31:27.907Z,1.30
2024-02-21T10:33:59.581Z,1.60
2024-02-21T10:36:26.809Z,1.30
2024-02-21T10:38:53.845Z,1.30
2024-02-21T10:41:21.621Z,1.13
2024-02-21T10:43:52.950Z,1.10
2024-02-21T10:46:21.246Z,1.10
2024-02-21T10:48:49.277Z,1.47
2024-02-21T10:51:18.406Z,1.30
2024-02-21T10:53:54.162Z,1.83
2024-02-21T10:56:37.785Z,1.43
2024-02-21T10:59:06.230Z,1.23
2024-02-21T11:01:33.731Z,1.20
2024-02-21T11:06:48.504Z,1.73
2024-02-21T11:09:15.243Z,1.80
2024-02-21T11:11:44.223Z,1.50
2024-02-21T11:14:22.504Z,1.60
2024-02-21T11:16:49.338Z,1.33
2024-02-21T11:19:25.069Z,1.40
2024-02-21T11:21:52.620Z,1.70
2024-02-21T11:24:32.390Z,1.77
2024-02-21T11:27:14.290Z,1.83
2024-02-21T11:29:44.818Z,1.20
2024-02-21T11:32:13.028Z,1.40
2024-02-21T11:34:41.303Z,1.40
2024-02-21T11:37:18.502Z,1.33
2024-02-21T11:39:45.062Z,1.43
2024-02-21T11:42:13.400Z,1.10
2024-02-21T11:44:40.920Z,1.30
2024-02-21T11:47:08.582Z,1.17
2024-02-21T11:49:43.048Z,0.83
2024-02-21T11:52:09.509Z,1.10
2024-02-21T11:54:36.162Z,1.27
2024-02-21T11:57:03.766Z,1.40
2024-02-21T11:59:33.844Z,1.10
2024-02-21T12:02:01.954Z,1.50
2024-02-21T12:04:29.712Z,1.30
2024-02-21T12:06:56.553Z,1.10
2024-02-21T12:09:24.801Z,1.30
2024-02-21T12:12:07.484Z,1.07
2024-02-21T12:14:36.707Z,1.00
2024-02-21T12:17:07.331Z,1.10
2024-02-21T12:19:34.785Z,1.00
2024-02-21T12:22:02.158Z,1.40
2024-02-21T12:24:30.079Z,0.80
2024-02-21T12:26:57.826Z,1.17
2024-02-21T12:29:29.831Z,1.53
2024-02-21T12:31:56.606Z,1.30
2024-02-21T12:34:34.354Z,1.20
2024-02-21T12:37:06.057Z,1.20
2024-02-21T12:39:33.400Z,1.30
2024-02-21T12:42:00.269Z,1.50
2024-02-21T12:44:26.962Z,1.20
2024-02-21T12:46:55.343Z,1.00
2024-02-21T12:49:22.395Z,1.17
2024-02-21T12:51:49.528Z,1.07
2024-02-21T12:54:16.019Z,1.60
2024-02-21T12:56:42.614Z,1.07
2024-02-21T12:59:10.192Z,0.97
2024-02-21T13:01:38.790Z,1.00
2024-02-21T13:04:05.624Z,1.00
2024-02-21T13:06:32.173Z,0.80
2024-02-21T13:08:58.759Z,1.03
2024-02-21T13:11:28.227Z,1.00
2024-02-21T13:13:54.865Z,1.23
2024-02-21T13:16:21.404Z,1.00
2024-02-21T13:18:49.153Z,1.17
2024-02-21T13:21:15.850Z,0.70
2024-02-21T13:23:42.393Z,0.80
2024-02-21T13:26:08.894Z,1.00
2024-02-21T13:28:35.484Z,0.90
2024-02-21T13:31:02.070Z,1.40
2024-02-21T13:33:29.933Z,0.90
2024-02-21T13:35:56.503Z,0.90
2024-02-21T13:38:22.975Z,0.90
2024-02-21T13:40:49.697Z,0.90
2024-02-21T13:43:16.253Z,0.90
2024-02-21T13:45:57.432Z,0.80
2024-02-21T13:48:24.149Z,0.90
2024-02-21T13:50:50.744Z,1.00
2024-02-21T13:53:19.521Z,1.10
2024-02-21T13:55:46.566Z,1.30
2024-02-21T13:58:13.656Z,0.90
2024-02-21T14:00:40.080Z,1.40
2024-02-21T14:03:06.861Z,1.00
2024-02-21T14:05:33.418Z,0.90
2024-02-21T14:08:00.205Z,1.10
2024-02-21T14:10:26.969Z,0.87
2024-02-21T14:12:53.501Z,1.03
2024-02-21T14:15:20.007Z,0.80
2024-02-21T14:17:46.590Z,0.87
2024-02-21T14:20:17.545Z,0.70
2024-02-21T14:22:44.825Z,0.90
2024-02-21T14:25:11.388Z,0.90
2024-02-21T14:27:38.012Z,0.70
2024-02-21T14:30:05.572Z,1.13
2024-02-21T14:32:32.286Z,1.23
2024-02-21T14:35:01.736Z,1.00
2024-02-21T14:37:29.959Z,0.70
2024-02-21T14:39:56.665Z,0.80
2024-02-21T14:42:23.207Z,0.90
2024-02-21T14:44:49.669Z,0.83
2024-02-21T14:47:16.288Z,1.00
2024-02-21T14:49:42.882Z,0.80
2024-02-21T14:52:10.829Z,0.70
2024-02-21T14:54:39.152Z,1.10
2024-02-21T14:57:05.889Z,0.83
2024-02-21T14:59:34.684Z,0.93
2024-02-21T15:02:02.619Z,0.83
2024-02-21T15:04:29.448Z,1.00
2024-02-21T15:06:56.023Z,0.70
2024-02-21T15:09:22.481Z,0.90
2024-02-21T15:11:49.000Z,0.97
2024-02-21T15:14:15.453Z,0.90
2024-02-21T15:16:41.962Z,0.93
2024-02-21T15:19:08.528Z,0.97
2024-02-21T15:21:35.134Z,1.20
2024-02-21T15:24:02.985Z,1.20
2024-02-21T15:26:30.781Z,1.17
2024-02-21T15:28:57.332Z,0.83
2024-02-21T15:31:25.813Z,1.20
2024-02-21T15:33:55.520Z,1.27
2024-02-21T15:36:23.720Z,1.50
2024-02-21T15:38:51.844Z,1.20
2024-02-21T15:41:23.407Z,1.60
2024-02-21T15:43:52.280Z,1.37
2024-02-21T15:46:20.874Z,1.50
2024-02-21T15:48:49.839Z,1.20
2024-02-21T15:51:18.008Z,1.40
2024-02-21T15:53:47.005Z,1.30
2024-02-21T15:56:16.100Z,1.50
2024-02-21T15:58:45.614Z,1.30
2024-02-21T16:01:13.688Z,2.53
2024-02-21T16:03:43.552Z,1.53
2024-02-21T16:06:12.477Z,1.27
2024-02-21T16:08:42.736Z,1.20
2024-02-21T16:11:19.821Z,1.13
2024-02-21T16:13:50.237Z,1.40
2024-02-21T16:16:19.191Z,1.13
2024-02-21T16:18:48.825Z,1.43
2024-02-21T16:21:16.824Z,1.20
2024-02-21T16:23:45.345Z,1.80
2024-02-21T16:26:14.622Z,1.40
2024-02-21T16:28:42.852Z,1.37
2024-02-21T16:31:13.826Z,1.60
2024-02-21T16:33:43.426Z,2.27
2024-02-21T16:36:21.888Z,1.70
2024-02-21T16:38:52.892Z,1.40
2024-02-21T16:41:23.155Z,1.30
2024-02-21T16:43:50.677Z,1.30
2024-02-21T16:46:20.295Z,1.27
2024-02-21T16:48:49.313Z,1.53
2024-02-21T16:51:18.156Z,1.50
2024-02-21T16:53:45.947Z,1.75
2024-02-21T16:56:14.588Z,2.07
2024-02-21T16:58:42.560Z,2.10
2024-02-21T17:01:13.701Z,1.53
2024-02-21T17:03:41.586Z,1.90
2024-02-21T17:06:15.434Z,1.60
2024-02-21T17:08:44.347Z,1.87
2024-02-21T17:11:12.933Z,1.83
2024-02-21T17:13:39.817Z,1.83
2024-02-21T17:16:06.613Z,1.73
2024-02-21T17:18:33.160Z,1.60
2024-02-21T17:20:59.705Z,1.60
2024-02-21T17:23:26.200Z,1.60
2024-02-21T17:25:52.705Z,1.50
2024-02-21T17:28:19.405Z,1.83
2024-02-21T17:30:45.951Z,1.70
2024-02-21T17:33:12.949Z,1.63
2024-02-21T17:35:41.681Z,1.53
2024-02-21T17:38:11.509Z,2.23
2024-02-21T17:40:38.327Z,1.87
2024-02-21T17:43:04.945Z,1.57
2024-02-21T17:45:31.788Z,2.70
2024-02-21T17:47:58.368Z,2.50
2024-02-21T17:50:27.081Z,2.30
2024-02-21T17:52:53.767Z,2.20
2024-02-21T17:55:20.415Z,1.70
2024-02-21T17:57:46.892Z,2.20
2024-02-21T18:00:13.821Z,3.13
2024-02-21T18:02:40.396Z,3.00
2024-02-21T18:05:07.315Z,3.07
2024-02-21T18:07:33.982Z,2.70
2024-02-21T18:10:00.493Z,2.43
2024-02-21T18:12:27.045Z,2.30
2024-02-21T18:14:53.475Z,1.83
2024-02-21T18:17:19.932Z,2.00
2024-02-21T18:19:47.124Z,1.87
2024-02-21T18:22:13.856Z,1.90
2024-02-21T18:24:40.337Z,1.70
2024-02-21T18:27:07.733Z,1.80
2024-02-21T18:29:39.118Z,2.20
2024-02-21T18:32:11.556Z,2.10
2024-02-21T18:34:38.898Z,2.53
2024-02-21T18:37:05.865Z,2.53
2024-02-21T18:39:32.840Z,2.17
2024-02-21T18:41:59.628Z,2.07
2024-02-21T18:44:26.209Z,2.10
2024-02-21T18:46:52.822Z,2.20
2024-02-21T18:49:20.074Z,2.50
2024-02-21T18:51:47.613Z,4.17
2024-02-21T18:54:14.259Z,2.80
2024-02-21T18:56:45.021Z,2.70
2024-02-21T18:59:12.424Z,2.40
2024-02-21T19:01:39.068Z,2.17
2024-02-21T19:04:05.660Z,2.40
2024-02-21T19:06:32.398Z,2.10
2024-02-21T19:08:59.000Z,1.83
2024-02-21T19:11:25.665Z,2.00
2024-02-21T19:13:52.744Z,1.97
2024-02-21T19:16:19.422Z,2.03
2024-02-21T19:18:47.067Z,1.77
2024-02-21T19:21:13.675Z,1.57
2024-02-21T19:23:40.340Z,2.13
2024-02-21T19:26:10.291Z,1.93
2024-02-21T19:28:37.783Z,1.90
2024-02-21T19:31:05.849Z,1.57
2024-02-21T19:33:32.695Z,1.73
2024-02-21T19:36:00.810Z,1.70
2024-02-21T19:38:28.301Z,1.40
2024-02-21T19:40:55.205Z,1.63
2024-02-21T19:43:22.190Z,1.93
2024-02-21T19:45:48.716Z,1.73
2024-02-21T19:48:15.368Z,1.60
2024-02-21T19:50:42.429Z,1.77
2024-02-21T19:53:09.087Z,2.00
2024-02-21T19:55:35.864Z,1.70
2024-02-21T19:58:03.405Z,1.43
2024-02-21T20:00:29.942Z,1.80
2024-02-21T20:02:56.496Z,1.90
2024-02-21T20:05:23.133Z,1.43
2024-02-21T20:07:49.786Z,1.30
2024-02-21T20:10:18.969Z,1.50
2024-02-21T20:12:46.068Z,1.60
2024-02-21T20:15:14.945Z,1.27
2024-02-21T20:17:47.985Z,1.50
2024-02-21T20:20:15.096Z,1.00
2024-02-21T20:22:44.876Z,1.23
2024-02-21T20:25:11.624Z,1.13
2024-02-21T20:27:38.587Z,1.30
2024-02-21T20:30:08.653Z,1.10
2024-02-21T20:32:35.510Z,1.20
2024-02-21T20:35:02.181Z,1.43
2024-02-21T20:37:28.802Z,1.00
2024-02-21T20:39:55.290Z,1.40
2024-02-21T20:42:25.032Z,1.37
2024-02-21T20:44:52.388Z,1.27
2024-02-21T20:47:20.919Z,1.37
2024-02-21T20:49:47.907Z,1.40
2024-02-21T20:52:14.502Z,1.40
2024-02-21T20:54:41.635Z,1.30
2024-02-21T20:57:08.220Z,1.20
2024-02-21T20:59:34.686Z,1.20
2024-02-21T21:02:03.691Z,1.20
2024-02-21T21:04:31.388Z,1.23
2024-02-21T21:06:58.322Z,1.33
2024-02-21T21:09:26.963Z,1.10
2024-02-21T21:11:53.811Z,1.43
2024-02-21T21:14:20.429Z,1.30
2024-02-21T21:16:47.097Z,1.30
2024-02-21T21:19:13.880Z,1.23
2024-02-21T21:21:41.540Z,1.33
2024-02-21T21:24:09.533Z,1.30
2024-02-21T21:26:36.564Z,1.40
2024-02-21T21:29:03.439Z,1.23
2024-02-21T21:31:30.331Z,1.00
2024-02-21T21:33:57.189Z,1.20
2024-02-21T21:36:24.220Z,1.50
2024-02-21T21:38:51.022Z,1.37
2024-02-21T21:41:18.552Z,1.00
2024-02-21T21:43:45.333Z,1.43
2024-02-21T21:46:15.089Z,1.17
2024-02-21T21:48:45.273Z,1.60
2024-02-21T21:51:12.606Z,0.83
2024-02-21T21:53:40.953Z,1.00
2024-02-21T21:56:08.174Z,1.10
2024-02-21T21:58:35.137Z,0.77
2024-02-21T22:01:01.918Z,0.80
2024-02-21T22:03:29.564Z,0.90
2024-02-21T22:05:56.559Z,0.90
2024-02-21T22:08:23.299Z,1.00
2024-02-21T22:10:51.985Z,1.13
2024-02-21T22:13:18.668Z,0.87
2024-02-21T22:15:46.445Z,0.70
2024-02-21T22:18:13.547Z,1.00
2024-02-21T22:20:40.595Z,0.97
2024-02-21T22:23:07.235Z,0.83
2024-02-21T22:25:33.861Z,0.83
2024-02-21T22:28:00.769Z,1.17
2024-02-21T22:30:27.415Z,0.80
2024-02-21T22:32:54.029Z,0.90
2024-02-21T22:35:20.758Z,0.80
2024-02-21T22:37:47.530Z,1.10
2024-02-21T22:40:14.212Z,0.70
2024-02-21T22:42:43.112Z,1.07
2024-02-21T22:45:09.916Z,0.80
2024-02-21T22:47:36.503Z,0.70
2024-02-21T22:50:03.770Z,0.90
2024-02-21T22:52:30.215Z,0.60
2024-02-21T22:54:56.699Z,0.80
2024-02-21T22:57:23.211Z,0.60
2024-02-21T22:59:50.396Z,0.70
2024-02-21T23:02:16.919Z,0.70
2024-02-21T23:04:43.586Z,0.90
2024-02-21T23:07:10.083Z,0.83
2024-02-21T23:09:36.880Z,0.70
2024-02-21T23:12:03.723Z,0.97
2024-02-21T23:14:30.361Z,0.80
2024-02-21T23:16:57.095Z,0.80
2024-02-21T23:19:23.580Z,0.90
2024-02-21T23:21:50.061Z,0.80
2024-02-21T23:24:16.502Z,0.80
2024-02-21T23:26:42.913Z,1.00
2024-02-21T23:29:09.598Z,0.70
2024-02-21T23:31:39.329Z,0.73
2024-02-21T23:34:05.884Z,0.80
2024-02-21T23:36:32.399Z,0.77
2024-02-21T23:38:58.902Z,0.77
2024-02-21T23:41:25.301Z,0.70
2024-02-21T23:43:52.054Z,0.83
2024-02-21T23:46:21.131Z,0.80
2024-02-21T23:48:47.682Z,0.70
2024-02-21T23:51:14.086Z,0.97
2024-02-21T23:53:40.549Z,1.00
2024-02-21T23:56:11.093Z,1.30
2024-02-21T23:58:37.808Z,0.80
